createdAt,value
2023-05-11T00:07:52.750Z,11.55
2023-05-11T00:22:55.370Z,11.44
2023-05-11T00:37:59.125Z,11.30
2023-05-11T00:53:02.766Z,11.17
2023-05-11T01:08:16.300Z,11.02
2023-05-11T01:23:55.795Z,10.88
2023-05-11T01:39:04.012Z,10.77
2023-05-11T01:54:09.587Z,10.71
2023-05-11T02:09:15.873Z,10.61
2023-05-11T02:24:21.044Z,10.48
2023-05-11T02:39:32.443Z,10.32
2023-05-11T02:54:53.269Z,10.16
2023-05-11T03:09:55.945Z,10.00
2023-05-11T03:25:16.052Z,9.86
2023-05-11T03:40:20.957Z,9.77
2023-05-11T03:55:24.303Z,9.87
2023-05-11T04:10:27.411Z,10.20
2023-05-11T04:25:30.376Z,10.62
2023-05-11T04:40:35.598Z,10.83
2023-05-11T04:55:39.807Z,11.02
2023-05-11T05:10:42.475Z,11.19
2023-05-11T05:25:45.326Z,11.37
2023-05-11T05:40:47.910Z,11.60
2023-05-11T05:56:06.238Z,11.91
2023-05-11T06:11:09.144Z,12.33
2023-05-11T06:26:11.979Z,12.78
2023-05-11T06:41:14.992Z,13.31
2023-05-11T06:56:18.237Z,14.02
2023-05-11T07:11:21.509Z,14.83
2023-05-11T07:26:24.308Z,15.64
2023-05-11T07:41:28.477Z,16.31
2023-05-11T07:56:31.909Z,16.97
2023-05-11T08:11:35.007Z,17.52
2023-05-11T08:32:15.180Z,18.11
2023-05-11T08:47:23.170Z,18.47
2023-05-11T09:02:27.343Z,18.85
2023-05-11T09:17:30.406Z,19.11
2023-05-11T09:32:51.078Z,19.42
2023-05-11T09:47:53.960Z,19.64
2023-05-11T10:03:08.137Z,19.85
2023-05-11T10:18:26.282Z,20.00
2023-05-11T10:33:30.729Z,20.32
2023-05-11T10:48:52.200Z,20.60
2023-05-11T11:04:08.712Z,20.87
2023-05-11T11:19:30.298Z,21.16
2023-05-11T11:34:36.059Z,21.38
2023-05-11T11:49:55.010Z,21.64
2023-05-11T12:05:07.832Z,21.80
2023-05-11T12:20:16.352Z,22.01
2023-05-11T12:35:32.073Z,22.14
2023-05-11T12:50:45.472Z,22.14
2023-05-11T13:05:48.436Z,22.51
2023-05-11T13:21:06.488Z,22.66
2023-05-11T13:36:23.824Z,22.85
2023-05-11T13:51:27.434Z,23.24
2023-05-11T14:06:34.569Z,23.53
2023-05-11T14:33:36.870Z,23.08
2023-05-11T14:48:54.302Z,22.96
2023-05-11T15:03:57.301Z,22.92
2023-05-11T15:19:01.013Z,22.82
2023-05-11T15:34:08.329Z,22.60
2023-05-11T15:49:12.631Z,22.37
2023-05-11T16:04:15.586Z,21.67
2023-05-11T16:19:19.294Z,21.26
2023-05-11T16:34:22.084Z,20.73
2023-05-11T16:49:25.167Z,20.33
2023-05-11T17:04:28.374Z,19.85
2023-05-11T17:19:32.012Z,19.53
2023-05-11T17:34:35.446Z,19.11
2023-05-11T17:49:38.759Z,18.67
2023-05-11T18:04:42.972Z,18.26
2023-05-11T18:19:47.175Z,17.84
2023-05-11T18:34:50.310Z,17.40
2023-05-11T18:49:54.377Z,17.11
2023-05-11T19:04:58.431Z,16.84
2023-05-11T19:20:07.657Z,16.60
2023-05-11T19:35:23.137Z,16.29
2023-05-11T19:50:51.751Z,15.74
2023-05-11T20:05:58.969Z,15.23
2023-05-11T20:21:02.812Z,14.81
2023-05-11T20:36:21.490Z,14.69
2023-05-11T20:51:36.068Z,14.71
2023-05-11T21:06:55.255Z,14.60
2023-05-11T21:22:13.266Z,14.46
2023-05-11T21:37:19.656Z,14.28
2023-05-11T21:52:22.103Z,14.08
2023-05-11T22:07:24.926Z,13.85
2023-05-11T22:22:28.134Z,13.62
2023-05-11T22:37:31.082Z,13.45
2023-05-11T22:52:48.367Z,13.27
2023-05-11T23:07:51.551Z,13.06
2023-05-11T23:22:54.398Z,12.86
2023-05-11T23:38:11.809Z,12.63
2023-05-11T23:53:14.856Z,12.41
